createdAt,value
2024-01-11T00:04:05.844Z,21.67
2024-01-11T00:09:07.925Z,22.63
2024-01-11T00:14:10.173Z,23.40
2024-01-11T00:19:12.483Z,23.55
2024-01-11T00:24:14.637Z,22.95
2024-01-11T00:29:16.835Z,23.50
2024-01-11T00:34:18.981Z,22.95
2024-01-11T00:39:21.179Z,22.92
2024-01-11T00:44:23.320Z,23.60
2024-01-11T00:49:25.459Z,23.45
2024-01-11T00:54:27.533Z,23.65
2024-01-11T00:59:29.686Z,23.35
2024-01-11T01:04:32.724Z,22.65
2024-01-11T01:09:35.715Z,24.60
2024-01-11T01:14:37.926Z,24.27
2024-01-11T01:19:40.127Z,23.88
2024-01-11T01:24:42.250Z,23.92
2024-01-11T01:29:44.440Z,23.60
2024-01-11T01:34:48.686Z,24.10
2024-01-11T01:39:51.129Z,24.30
2024-01-11T01:44:53.360Z,24.50
2024-01-11T01:49:56.324Z,23.67
2024-01-11T01:54:59.718Z,24.80
2024-01-11T02:00:03.437Z,23.65
2024-01-11T02:05:15.186Z,23.27
2024-01-11T02:10:17.900Z,24.77
2024-01-11T02:15:20.210Z,24.15
2024-01-11T02:20:22.483Z,24.75
2024-01-11T02:25:24.771Z,24.30
2024-01-11T02:30:27.004Z,24.70
2024-01-11T02:35:29.600Z,24.83
2024-01-11T02:40:32.027Z,24.17
2024-01-11T02:45:34.269Z,24.38
2024-01-11T02:50:36.592Z,23.92
2024-01-11T02:55:38.718Z,26.02
2024-01-11T03:00:40.768Z,24.02
2024-01-11T03:05:43.014Z,23.92
2024-01-11T03:10:45.231Z,22.90
2024-01-11T03:15:47.410Z,24.13
2024-01-11T03:20:49.712Z,24.17
2024-01-11T03:25:52.028Z,22.65
2024-01-11T03:30:54.554Z,22.65
2024-01-11T03:35:56.656Z,22.73
2024-01-11T03:40:58.862Z,21.98
2024-01-11T03:46:01.136Z,23.45
2024-01-11T03:51:03.555Z,23.90
2024-01-11T03:56:06.012Z,23.42
2024-01-11T04:01:11.155Z,23.27
2024-01-11T04:06:23.752Z,22.60
2024-01-11T04:11:29.858Z,22.30
2024-01-11T04:16:31.980Z,24.73
2024-01-11T04:21:34.150Z,24.13
2024-01-11T04:26:36.479Z,24.50
2024-01-11T04:31:38.806Z,23.60
2024-01-11T04:36:41.110Z,24.55
2024-01-11T04:41:43.402Z,23.50
2024-01-11T04:46:45.792Z,24.00
2024-01-11T04:51:48.062Z,22.80
2024-01-11T04:56:50.792Z,22.02
2024-01-11T05:01:53.205Z,24.35
2024-01-11T05:06:55.352Z,23.37
2024-01-11T05:11:57.492Z,23.45
2024-01-11T05:16:59.899Z,24.35
2024-01-11T05:22:02.157Z,23.02
2024-01-11T05:27:04.499Z,23.08
2024-01-11T05:32:07.129Z,24.10
2024-01-11T05:37:09.332Z,23.20
2024-01-11T05:42:11.361Z,23.15
2024-01-11T05:47:13.446Z,21.75
2024-01-11T05:52:15.604Z,22.98
2024-01-11T05:57:17.867Z,21.38
2024-01-11T06:02:21.737Z,22.63
2024-01-11T06:07:24.764Z,22.38
2024-01-11T06:12:26.906Z,21.33
2024-01-11T06:17:29.492Z,22.75
2024-01-11T06:22:31.668Z,22.38
2024-01-11T06:27:33.728Z,21.52
2024-01-11T06:32:35.919Z,22.17
2024-01-11T06:37:38.161Z,21.30
2024-01-11T06:42:40.349Z,22.42
2024-01-11T06:47:42.611Z,22.55
2024-01-11T06:52:44.778Z,21.35
2024-01-11T06:57:49.826Z,21.02
2024-01-11T07:02:54.613Z,20.60
2024-01-11T07:07:56.763Z,20.67
2024-01-11T07:12:58.923Z,20.55
2024-01-11T07:18:01.129Z,20.55
2024-01-11T07:23:03.613Z,21.27
2024-01-11T07:28:05.951Z,21.63
2024-01-11T07:33:09.571Z,21.52
2024-01-11T07:38:12.886Z,21.05
2024-01-11T07:43:15.193Z,23.25
2024-01-11T07:48:19.199Z,22.35
2024-01-11T07:53:21.691Z,23.77
2024-01-11T07:58:24.048Z,23.55
2024-01-11T08:03:26.352Z,23.13
2024-01-11T08:08:29.058Z,24.48
2024-01-11T08:13:32.517Z,24.05
2024-01-11T08:18:34.791Z,24.30
2024-01-11T08:23:41.754Z,24.40
2024-01-11T08:28:44.125Z,25.23
2024-01-11T08:33:46.559Z,24.48
2024-01-11T08:38:50.853Z,26.45
2024-01-11T08:43:54.486Z,26.30
2024-01-11T08:48:57.906Z,25.60
2024-01-11T08:54:00.422Z,26.63
2024-01-11T08:59:03.471Z,26.88
2024-01-11T09:04:06.499Z,27.63
2024-01-11T09:09:11.194Z,25.42
2024-01-11T09:14:14.171Z,27.75
2024-01-11T09:19:16.980Z,28.90
2024-01-11T09:24:19.227Z,28.02
2024-01-11T09:29:21.383Z,29.83
2024-01-11T09:34:23.626Z,30.25
2024-01-11T09:39:26.951Z,30.70
2024-01-11T09:44:30.511Z,29.35
2024-01-11T09:49:34.583Z,30.23
2024-01-11T09:54:38.721Z,30.73
2024-01-11T09:59:42.412Z,31.05
2024-01-11T10:04:45.184Z,29.17
2024-01-11T10:09:47.515Z,30.98
2024-01-11T10:14:50.255Z,31.10
2024-01-11T10:19:54.607Z,31.67
2024-01-11T10:25:17.057Z,29.42
2024-01-11T10:30:20.501Z,30.60
2024-01-11T10:35:23.835Z,29.90
2024-01-11T10:40:26.741Z,28.23
2024-01-11T10:45:31.711Z,29.23
2024-01-11T10:50:41.224Z,30.52
2024-01-11T10:55:43.823Z,29.13
2024-01-11T11:00:47.320Z,30.20
2024-01-11T11:05:51.695Z,30.13
2024-01-11T11:11:01.843Z,29.92
2024-01-11T11:16:07.102Z,29.70
2024-01-11T11:21:14.861Z,30.35
2024-01-11T11:26:18.406Z,29.40
2024-01-11T11:31:48.390Z,27.58
2024-01-11T11:36:55.784Z,26.73
2024-01-11T11:41:59.340Z,28.02
2024-01-11T11:47:22.365Z,27.90
2024-01-11T11:52:24.773Z,26.85
2024-01-11T11:57:29.022Z,26.63
2024-01-11T12:02:31.822Z,25.58
2024-01-11T12:07:34.124Z,25.90
2024-01-11T12:12:37.373Z,26.83
2024-01-11T12:17:43.566Z,26.88
2024-01-11T12:22:45.761Z,26.58
2024-01-11T12:27:47.934Z,25.05
2024-01-11T12:32:51.670Z,27.35
2024-01-11T12:37:55.104Z,25.95
2024-01-11T12:42:58.368Z,21.85
2024-01-11T12:48:01.518Z,19.10
2024-01-11T12:53:21.531Z,16.83
2024-01-11T12:58:23.686Z,18.75
2024-01-11T13:03:28.513Z,15.55
2024-01-11T13:08:30.888Z,15.10
2024-01-11T13:13:33.004Z,15.18
2024-01-11T13:18:35.091Z,15.73
2024-01-11T13:23:39.116Z,16.33
2024-01-11T13:28:41.937Z,15.43
2024-01-11T13:33:44.274Z,15.25
2024-01-11T13:38:46.654Z,16.38
2024-01-11T13:43:49.052Z,17.02
2024-01-11T13:48:51.195Z,15.98
2024-01-11T13:53:53.454Z,16.73
2024-01-11T13:58:56.250Z,18.48
2024-01-11T14:03:58.518Z,19.25
2024-01-11T14:09:00.884Z,16.75
2024-01-11T14:14:05.985Z,15.82
2024-01-11T14:19:09.832Z,16.48
2024-01-11T14:24:14.155Z,17.45
2024-01-11T14:29:17.438Z,16.55
2024-01-11T14:34:19.764Z,15.35
2024-01-11T14:39:24.677Z,15.80
2024-01-11T14:44:26.845Z,15.77
2024-01-11T14:49:30.147Z,13.85
2024-01-11T14:54:32.289Z,15.75
2024-01-11T14:59:34.532Z,14.73
2024-01-11T15:04:37.353Z,15.35
2024-01-11T15:09:41.823Z,16.02
2024-01-11T15:14:44.389Z,15.60
2024-01-11T15:19:47.080Z,16.55
2024-01-11T15:24:54.071Z,15.82
2024-01-11T15:29:56.885Z,22.52
2024-01-11T15:34:59.533Z,17.63
2024-01-11T15:40:03.277Z,17.13
2024-01-11T15:45:07.311Z,15.88
2024-01-11T15:50:11.330Z,15.65
2024-01-11T15:55:13.851Z,14.70
2024-01-11T16:00:16.343Z,16.10
2024-01-11T16:05:18.477Z,15.57
2024-01-11T16:10:20.814Z,15.35
2024-01-11T16:15:22.923Z,15.57
2024-01-11T16:20:25.156Z,16.05
2024-01-11T16:25:27.263Z,16.35
2024-01-11T16:30:29.570Z,17.17
2024-01-11T16:35:34.700Z,15.55
2024-01-11T16:40:42.161Z,17.38
2024-01-11T16:45:44.234Z,19.50
2024-01-11T16:50:48.154Z,18.17
2024-01-11T16:55:51.779Z,17.52
2024-01-11T17:00:53.933Z,17.95
2024-01-11T17:05:56.385Z,17.83
2024-01-11T17:10:58.734Z,17.92
2024-01-11T17:16:01.328Z,19.60
2024-01-11T17:21:04.075Z,20.02
2024-01-11T17:26:07.731Z,19.77
2024-01-11T17:31:10.284Z,19.13
2024-01-11T17:36:12.929Z,21.55
2024-01-11T17:41:17.788Z,19.85
2024-01-11T17:46:27.455Z,19.92
2024-01-11T17:51:33.191Z,20.02
2024-01-11T17:56:39.938Z,20.27
2024-01-11T18:01:42.100Z,19.52
2024-01-11T18:06:48.446Z,19.85
2024-01-11T18:11:51.642Z,20.95
2024-01-11T18:16:54.133Z,22.27
2024-01-11T18:21:56.474Z,22.70
2024-01-11T18:26:59.052Z,22.65
2024-01-11T18:32:01.609Z,22.95
2024-01-11T18:37:03.907Z,25.05
2024-01-11T18:42:07.671Z,23.73
2024-01-11T18:47:10.255Z,21.73
2024-01-11T18:52:12.415Z,21.95
2024-01-11T18:57:15.964Z,24.00
2024-01-11T19:02:18.256Z,24.60
2024-01-11T19:07:20.714Z,24.55
2024-01-11T19:12:23.644Z,23.83
2024-01-11T19:17:25.868Z,23.25
2024-01-11T19:22:28.134Z,24.63
2024-01-11T19:27:30.228Z,24.70
2024-01-11T19:32:33.061Z,23.52
2024-01-11T19:37:35.282Z,24.98
2024-01-11T19:42:37.635Z,24.58
2024-01-11T19:47:40.165Z,24.95
2024-01-11T19:52:42.437Z,25.02
2024-01-11T19:57:44.514Z,25.23
2024-01-11T20:02:46.964Z,26.00
2024-01-11T20:07:56.872Z,26.42
2024-01-11T20:12:59.190Z,25.10
2024-01-11T20:18:02.724Z,27.13
2024-01-11T20:23:06.063Z,26.42
2024-01-11T20:28:10.020Z,26.83
2024-01-11T20:33:13.739Z,24.27
2024-01-11T20:38:16.062Z,27.70
2024-01-11T20:43:18.250Z,25.73
2024-01-11T20:48:21.424Z,26.48
2024-01-11T20:53:23.969Z,27.77
2024-01-11T20:58:26.235Z,29.23
2024-01-11T21:03:28.350Z,27.30
2024-01-11T21:08:30.849Z,27.33
2024-01-11T21:13:32.925Z,27.10
2024-01-11T21:18:35.180Z,27.55
2024-01-11T21:23:37.686Z,27.00
2024-01-11T21:28:39.933Z,27.85
2024-01-11T21:33:45.221Z,28.98
2024-01-11T21:38:47.686Z,27.58
2024-01-11T21:43:50.002Z,29.02
2024-01-11T21:48:52.900Z,28.48
2024-01-11T21:53:58.781Z,28.50
2024-01-11T21:59:01.381Z,29.33
2024-01-11T22:04:04.925Z,30.10
2024-01-11T22:09:07.427Z,30.13
2024-01-11T22:14:09.700Z,28.75
2024-01-11T22:19:12.219Z,30.83
2024-01-11T22:24:14.649Z,30.85
2024-01-11T22:29:16.914Z,30.98
2024-01-11T22:34:19.269Z,29.90
2024-01-11T22:39:21.472Z,30.48
2024-01-11T22:44:23.797Z,32.17
2024-01-11T22:49:26.418Z,31.90
2024-01-11T22:54:28.500Z,31.05
2024-01-11T22:59:30.740Z,33.03
2024-01-11T23:04:34.262Z,31.50
2024-01-11T23:09:36.425Z,31.30
2024-01-11T23:14:38.602Z,30.85
2024-01-11T23:19:40.698Z,31.80
2024-01-11T23:24:43.008Z,31.02
2024-01-11T23:29:45.292Z,30.10
2024-01-11T23:34:47.517Z,29.60
2024-01-11T23:39:49.671Z,30.10
2024-01-11T23:44:51.827Z,27.95
2024-01-11T23:49:54.354Z,30.27
2024-01-11T23:54:56.439Z,28.02
2024-01-11T23:59:58.575Z,31.33
